sensor_id;sensor_type;location;lat;lon;timestamp;P1;durP1;ratioP1;P2;durP2;ratioP2
13222;SDS011;6676;45.192;5.722;2023-06-19T00:02:17;3.70;;;3.00;;
13222;SDS011;6676;45.192;5.722;2023-06-19T00:05:09;4.00;;;3.60;;
13222;SDS011;6676;45.192;5.722;2023-06-19T00:08:02;3.90;;;3.22;;
13222;SDS011;6676;45.192;5.722;2023-06-19T00:10:55;3.67;;;3.33;;
13222;SDS011;6676;45.192;5.722;2023-06-19T00:16:25;4.33;;;3.20;;
13222;SDS011;6676;45.192;5.722;2023-06-19T00:19:16;4.00;;;2.87;;
13222;SDS011;6676;45.192;5.722;2023-06-19T00:22:08;4.40;;;3.37;;
13222;SDS011;6676;45.192;5.722;2023-06-19T00:24:59;5.55;;;3.22;;
13222;SDS011;6676;45.192;5.722;2023-06-19T00:27:44;4.70;;;3.57;;
13222;SDS011;6676;45.192;5.722;2023-06-19T00:30:35;6.12;;;3.25;;
13222;SDS011;6676;45.192;5.722;2023-06-19T00:33:27;4.08;;;3.05;;
13222;SDS011;6676;45.192;5.722;2023-06-19T00:36:19;3.33;;;3.02;;
13222;SDS011;6676;45.192;5.722;2023-06-19T00:39:12;4.33;;;3.00;;
13222;SDS011;6676;45.192;5.722;2023-06-19T00:42:04;3.55;;;3.20;;
13222;SDS011;6676;45.192;5.722;2023-06-19T00:44:56;3.40;;;3.10;;
13222;SDS011;6676;45.192;5.722;2023-06-19T00:47:48;3.80;;;3.02;;
13222;SDS011;6676;45.192;5.722;2023-06-19T00:53:19;3.62;;;3.15;;
13222;SDS011;6676;45.192;5.722;2023-06-19T00:56:00;5.53;;;3.10;;
13222;SDS011;6676;45.192;5.722;2023-06-19T01:01:31;3.83;;;3.42;;
13222;SDS011;6676;45.192;5.722;2023-06-19T01:04:22;5.22;;;3.55;;
13222;SDS011;6676;45.192;5.722;2023-06-19T01:07:05;3.42;;;2.87;;
13222;SDS011;6676;45.192;5.722;2023-06-19T01:12:38;5.90;;;3.27;;
13222;SDS011;6676;45.192;5.722;2023-06-19T01:15:36;3.75;;;3.10;;
13222;SDS011;6676;45.192;5.722;2023-06-19T01:21:11;5.15;;;3.37;;
13222;SDS011;6676;45.192;5.722;2023-06-19T01:24:03;3.58;;;3.00;;
13222;SDS011;6676;45.192;5.722;2023-06-19T01:29:34;3.50;;;3.08;;
13222;SDS011;6676;45.192;5.722;2023-06-19T01:32:28;3.77;;;3.33;;
13222;SDS011;6676;45.192;5.722;2023-06-19T01:35:09;4.10;;;3.17;;
13222;SDS011;6676;45.192;5.722;2023-06-19T01:38:02;4.67;;;3.30;;
13222;SDS011;6676;45.192;5.722;2023-06-19T01:40:53;5.15;;;3.60;;
13222;SDS011;6676;45.192;5.722;2023-06-19T01:46:27;6.97;;;3.37;;
13222;SDS011;6676;45.192;5.722;2023-06-19T01:49:18;3.60;;;3.27;;
13222;SDS011;6676;45.192;5.722;2023-06-19T01:52:10;3.65;;;3.00;;
13222;SDS011;6676;45.192;5.722;2023-06-19T01:57:41;3.85;;;3.20;;
13222;SDS011;6676;45.192;5.722;2023-06-19T02:00:33;5.47;;;3.25;;
13222;SDS011;6676;45.192;5.722;2023-06-19T02:03:26;5.10;;;3.40;;
13222;SDS011;6676;45.192;5.722;2023-06-19T02:06:17;6.62;;;3.22;;
13222;SDS011;6676;45.192;5.722;2023-06-19T02:09:09;5.20;;;3.00;;
13222;SDS011;6676;45.192;5.722;2023-06-19T02:12:01;4.72;;;3.37;;
13222;SDS011;6676;45.192;5.722;2023-06-19T02:14:53;4.37;;;3.20;;
13222;SDS011;6676;45.192;5.722;2023-06-19T02:17:32;4.08;;;3.05;;
13222;SDS011;6676;45.192;5.722;2023-06-19T02:20:23;5.12;;;3.70;;
13222;SDS011;6676;45.192;5.722;2023-06-19T02:23:16;5.58;;;3.35;;
13222;SDS011;6676;45.192;5.722;2023-06-19T02:26:01;4.67;;;4.00;;
13222;SDS011;6676;45.192;5.722;2023-06-19T02:28:52;4.12;;;3.52;;
13222;SDS011;6676;45.192;5.722;2023-06-19T02:31:44;5.17;;;3.40;;
13222;SDS011;6676;45.192;5.722;2023-06-19T02:34:36;3.37;;;3.05;;
13222;SDS011;6676;45.192;5.722;2023-06-19T02:37:27;5.67;;;3.00;;
13222;SDS011;6676;45.192;5.722;2023-06-19T02:40:19;3.52;;;3.20;;
13222;SDS011;6676;45.192;5.722;2023-06-19T02:43:10;3.75;;;3.40;;
13222;SDS011;6676;45.192;5.722;2023-06-19T02:46:02;4.65;;;3.65;;
13222;SDS011;6676;45.192;5.722;2023-06-19T02:48:54;4.47;;;3.52;;
13222;SDS011;6676;45.192;5.722;2023-06-19T02:51:46;4.37;;;3.33;;
13222;SDS011;6676;45.192;5.722;2023-06-19T02:54:38;4.72;;;3.50;;
13222;SDS011;6676;45.192;5.722;2023-06-19T02:57:30;3.80;;;3.17;;
13222;SDS011;6676;45.192;5.722;2023-06-19T03:00:23;5.17;;;3.50;;
13222;SDS011;6676;45.192;5.722;2023-06-19T03:03:17;3.80;;;3.40;;
13222;SDS011;6676;45.192;5.722;2023-06-19T03:06:10;3.70;;;3.40;;
13222;SDS011;6676;45.192;5.722;2023-06-19T03:09:03;4.03;;;3.60;;
13222;SDS011;6676;45.192;5.722;2023-06-19T03:11:57;7.20;;;4.20;;
13222;SDS011;6676;45.192;5.722;2023-06-19T03:14:48;3.98;;;3.10;;
13222;SDS011;6676;45.192;5.722;2023-06-19T03:17:40;4.15;;;3.30;;
13222;SDS011;6676;45.192;5.722;2023-06-19T03:20:31;6.45;;;3.60;;
13222;SDS011;6676;45.192;5.722;2023-06-19T03:23:23;3.80;;;3.40;;
13222;SDS011;6676;45.192;5.722;2023-06-19T03:26:14;4.83;;;3.65;;
13222;SDS011;6676;45.192;5.722;2023-06-19T03:29:06;5.30;;;3.55;;
13222;SDS011;6676;45.192;5.722;2023-06-19T03:32:05;5.15;;;3.80;;
13222;SDS011;6676;45.192;5.722;2023-06-19T03:34:57;4.95;;;3.50;;
13222;SDS011;6676;45.192;5.722;2023-06-19T03:37:50;6.37;;;3.37;;
13222;SDS011;6676;45.192;5.722;2023-06-19T03:40:41;4.35;;;3.50;;
13222;SDS011;6676;45.192;5.722;2023-06-19T03:43:33;5.00;;;3.65;;
13222;SDS011;6676;45.192;5.722;2023-06-19T03:46:24;5.87;;;3.52;;
13222;SDS011;6676;45.192;5.722;2023-06-19T03:49:16;4.12;;;3.45;;
13222;SDS011;6676;45.192;5.722;2023-06-19T03:52:09;4.58;;;4.00;;
13222;SDS011;6676;45.192;5.722;2023-06-19T03:55:00;4.15;;;3.75;;
13222;SDS011;6676;45.192;5.722;2023-06-19T03:57:52;5.10;;;3.55;;
13222;SDS011;6676;45.192;5.722;2023-06-19T04:00:43;5.75;;;3.98;;
13222;SDS011;6676;45.192;5.722;2023-06-19T04:06:14;10.18;;;4.08;;
13222;SDS011;6676;45.192;5.722;2023-06-19T04:09:05;7.00;;;3.80;;
13222;SDS011;6676;45.192;5.722;2023-06-19T04:14:36;4.97;;;3.60;;
13222;SDS011;6676;45.192;5.722;2023-06-19T04:17:29;4.53;;;3.35;;
13222;SDS011;6676;45.192;5.722;2023-06-19T04:23:03;5.65;;;3.77;;
13222;SDS011;6676;45.192;5.722;2023-06-19T04:25:55;5.20;;;3.77;;
13222;SDS011;6676;45.192;5.722;2023-06-19T04:28:46;5.37;;;3.92;;
13222;SDS011;6676;45.192;5.722;2023-06-19T04:31:37;4.62;;;3.52;;
13222;SDS011;6676;45.192;5.722;2023-06-19T04:37:21;5.70;;;3.72;;
13222;SDS011;6676;45.192;5.722;2023-06-19T04:40:12;6.47;;;3.80;;
13222;SDS011;6676;45.192;5.722;2023-06-19T04:43:03;5.28;;;3.58;;
13222;SDS011;6676;45.192;5.722;2023-06-19T04:48:34;4.45;;;3.70;;
13222;SDS011;6676;45.192;5.722;2023-06-19T04:51:25;5.80;;;3.67;;
13222;SDS011;6676;45.192;5.722;2023-06-19T04:54:18;4.58;;;3.80;;
13222;SDS011;6676;45.192;5.722;2023-06-19T04:57:10;6.85;;;3.90;;
13222;SDS011;6676;45.192;5.722;2023-06-19T05:00:01;8.00;;;3.95;;
13222;SDS011;6676;45.192;5.722;2023-06-19T05:02:55;7.58;;;3.83;;
13222;SDS011;6676;45.192;5.722;2023-06-19T05:05:49;4.87;;;3.90;;
13222;SDS011;6676;45.192;5.722;2023-06-19T05:11:19;5.12;;;3.70;;
13222;SDS011;6676;45.192;5.722;2023-06-19T05:16:51;7.28;;;3.77;;
13222;SDS011;6676;45.192;5.722;2023-06-19T05:22:22;6.35;;;4.40;;
13222;SDS011;6676;45.192;5.722;2023-06-19T05:25:15;6.60;;;4.00;;
13222;SDS011;6676;45.192;5.722;2023-06-19T05:28:07;5.05;;;4.03;;
13222;SDS011;6676;45.192;5.722;2023-06-19T05:30:47;8.53;;;4.00;;
13222;SDS011;6676;45.192;5.722;2023-06-19T05:36:33;5.97;;;3.98;;
13222;SDS011;6676;45.192;5.722;2023-06-19T05:39:24;8.25;;;4.37;;
13222;SDS011;6676;45.192;5.722;2023-06-19T05:42:11;5.47;;;3.60;;
13222;SDS011;6676;45.192;5.722;2023-06-19T05:45:02;5.80;;;4.15;;
13222;SDS011;6676;45.192;5.722;2023-06-19T05:47:55;6.17;;;4.17;;
13222;SDS011;6676;45.192;5.722;2023-06-19T05:50:47;6.03;;;4.10;;
13222;SDS011;6676;45.192;5.722;2023-06-19T05:56:17;5.47;;;3.92;;
13222;SDS011;6676;45.192;5.722;2023-06-19T05:59:09;6.20;;;4.00;;
13222;SDS011;6676;45.192;5.722;2023-06-19T06:02:02;7.55;;;4.80;;
13222;SDS011;6676;45.192;5.722;2023-06-19T06:04:54;5.55;;;4.10;;
13222;SDS011;6676;45.192;5.722;2023-06-19T06:07:46;4.28;;;3.80;;
13222;SDS011;6676;45.192;5.722;2023-06-19T06:10:37;7.10;;;3.95;;
13222;SDS011;6676;45.192;5.722;2023-06-19T06:16:11;6.33;;;4.08;;
13222;SDS011;6676;45.192;5.722;2023-06-19T06:19:02;7.35;;;3.92;;
13222;SDS011;6676;45.192;5.722;2023-06-19T06:21:43;7.85;;;4.53;;
13222;SDS011;6676;45.192;5.722;2023-06-19T06:27:13;7.10;;;4.15;;
13222;SDS011;6676;45.192;5.722;2023-06-19T06:30:06;4.90;;;3.80;;
13222;SDS011;6676;45.192;5.722;2023-06-19T06:33:00;7.12;;;4.15;;
13222;SDS011;6676;45.192;5.722;2023-06-19T06:38:35;5.35;;;4.25;;
13222;SDS011;6676;45.192;5.722;2023-06-19T06:41:26;5.72;;;3.75;;
13222;SDS011;6676;45.192;5.722;2023-06-19T06:44:20;5.58;;;4.10;;
13222;SDS011;6676;45.192;5.722;2023-06-19T06:47:15;5.28;;;4.40;;
13222;SDS011;6676;45.192;5.722;2023-06-19T06:50:08;4.92;;;4.37;;
13222;SDS011;6676;45.192;5.722;2023-06-19T06:53:00;6.92;;;4.15;;
13222;SDS011;6676;45.192;5.722;2023-06-19T06:55:52;7.58;;;4.35;;
13222;SDS011;6676;45.192;5.722;2023-06-19T06:58:44;7.90;;;4.92;;
13222;SDS011;6676;45.192;5.722;2023-06-19T07:01:35;6.12;;;4.47;;
13222;SDS011;6676;45.192;5.722;2023-06-19T07:07:19;7.60;;;4.53;;
13222;SDS011;6676;45.192;5.722;2023-06-19T07:10:10;9.38;;;4.45;;
13222;SDS011;6676;45.192;5.722;2023-06-19T07:13:02;8.85;;;4.60;;
13222;SDS011;6676;45.192;5.722;2023-06-19T07:15:55;9.03;;;4.70;;
13222;SDS011;6676;45.192;5.722;2023-06-19T07:21:34;7.42;;;4.40;;
13222;SDS011;6676;45.192;5.722;2023-06-19T07:24:38;7.97;;;4.47;;
13222;SDS011;6676;45.192;5.722;2023-06-19T07:27:31;6.50;;;4.80;;
13222;SDS011;6676;45.192;5.722;2023-06-19T07:33:01;10.08;;;5.15;;
13222;SDS011;6676;45.192;5.722;2023-06-19T07:35:53;8.15;;;4.78;;
13222;SDS011;6676;45.192;5.722;2023-06-19T07:38:39;7.97;;;4.65;;
13222;SDS011;6676;45.192;5.722;2023-06-19T07:41:30;7.53;;;5.20;;
13222;SDS011;6676;45.192;5.722;2023-06-19T07:44:22;9.10;;;5.47;;
13222;SDS011;6676;45.192;5.722;2023-06-19T07:47:15;7.62;;;5.00;;
13222;SDS011;6676;45.192;5.722;2023-06-19T07:50:09;8.05;;;5.37;;
13222;SDS011;6676;45.192;5.722;2023-06-19T07:53:04;10.70;;;5.40;;
13222;SDS011;6676;45.192;5.722;2023-06-19T07:55:56;9.23;;;5.55;;
13222;SDS011;6676;45.192;5.722;2023-06-19T08:01:25;8.25;;;4.95;;
13222;SDS011;6676;45.192;5.722;2023-06-19T08:07:00;9.30;;;5.80;;
13222;SDS011;6676;45.192;5.722;2023-06-19T08:09:51;10.03;;;5.72;;
13222;SDS011;6676;45.192;5.722;2023-06-19T08:12:44;8.23;;;5.50;;
13222;SDS011;6676;45.192;5.722;2023-06-19T08:18:15;8.03;;;5.05;;
13222;SDS011;6676;45.192;5.722;2023-06-19T08:23:53;8.28;;;5.10;;
13222;SDS011;6676;45.192;5.722;2023-06-19T08:26:33;9.85;;;4.80;;
13222;SDS011;6676;45.192;5.722;2023-06-19T08:29:24;6.97;;;5.05;;
13222;SDS011;6676;45.192;5.722;2023-06-19T08:32:16;7.83;;;4.60;;
13222;SDS011;6676;45.192;5.722;2023-06-19T08:35:08;6.22;;;4.62;;
13222;SDS011;6676;45.192;5.722;2023-06-19T08:37:54;6.25;;;4.90;;
13222;SDS011;6676;45.192;5.722;2023-06-19T08:40:47;7.15;;;4.55;;
13222;SDS011;6676;45.192;5.722;2023-06-19T08:43:39;7.65;;;4.95;;
13222;SDS011;6676;45.192;5.722;2023-06-19T08:46:20;7.35;;;4.53;;
13222;SDS011;6676;45.192;5.722;2023-06-19T08:49:12;7.37;;;5.67;;
13222;SDS011;6676;45.192;5.722;2023-06-19T08:52:05;7.85;;;5.92;;
13222;SDS011;6676;45.192;5.722;2023-06-19T08:55:00;7.15;;;5.87;;
13222;SDS011;6676;45.192;5.722;2023-06-19T08:57:57;6.28;;;5.05;;
13222;SDS011;6676;45.192;5.722;2023-06-19T09:00:37;9.25;;;5.17;;
13222;SDS011;6676;45.192;5.722;2023-06-19T09:03:32;9.35;;;6.20;;
13222;SDS011;6676;45.192;5.722;2023-06-19T09:06:14;9.18;;;5.85;;
13222;SDS011;6676;45.192;5.722;2023-06-19T09:09:06;8.63;;;6.47;;
13222;SDS011;6676;45.192;5.722;2023-06-19T09:14:42;11.85;;;7.30;;
13222;SDS011;6676;45.192;5.722;2023-06-19T09:17:34;9.68;;;6.40;;
13222;SDS011;6676;45.192;5.722;2023-06-19T09:20:27;7.17;;;6.20;;
13222;SDS011;6676;45.192;5.722;2023-06-19T09:23:19;8.50;;;6.03;;
13222;SDS011;6676;45.192;5.722;2023-06-19T09:26:14;8.65;;;6.55;;
13222;SDS011;6676;45.192;5.722;2023-06-19T09:29:11;8.95;;;6.05;;
13222;SDS011;6676;45.192;5.722;2023-06-19T09:32:18;8.75;;;6.45;;
13222;SDS011;6676;45.192;5.722;2023-06-19T09:35:12;10.58;;;6.53;;
13222;SDS011;6676;45.192;5.722;2023-06-19T09:38:03;11.05;;;6.60;;
13222;SDS011;6676;45.192;5.722;2023-06-19T09:40:59;7.72;;;5.97;;
13222;SDS011;6676;45.192;5.722;2023-06-19T09:43:53;8.45;;;6.25;;
13222;SDS011;6676;45.192;5.722;2023-06-19T09:46:48;7.97;;;6.42;;
13222;SDS011;6676;45.192;5.722;2023-06-19T09:49:42;7.37;;;6.00;;
13222;SDS011;6676;45.192;5.722;2023-06-19T09:52:35;6.80;;;5.97;;
13222;SDS011;6676;45.192;5.722;2023-06-19T09:55:27;7.10;;;6.40;;
13222;SDS011;6676;45.192;5.722;2023-06-19T09:58:21;6.67;;;6.03;;
13222;SDS011;6676;45.192;5.722;2023-06-19T10:01:14;7.03;;;6.05;;
13222;SDS011;6676;45.192;5.722;2023-06-19T10:04:07;7.58;;;6.42;;
13222;SDS011;6676;45.192;5.722;2023-06-19T10:06:59;12.28;;;6.35;;
13222;SDS011;6676;45.192;5.722;2023-06-19T10:09:57;7.12;;;6.42;;
13222;SDS011;6676;45.192;5.722;2023-06-19T10:12:50;6.70;;;6.00;;
13222;SDS011;6676;45.192;5.722;2023-06-19T10:15:44;8.65;;;6.85;;
13222;SDS011;6676;45.192;5.722;2023-06-19T10:18:44;7.22;;;5.95;;
13222;SDS011;6676;45.192;5.722;2023-06-19T10:21:43;7.72;;;6.35;;
13222;SDS011;6676;45.192;5.722;2023-06-19T10:24:36;6.97;;;6.28;;
13222;SDS011;6676;45.192;5.722;2023-06-19T10:27:28;7.10;;;6.00;;
13222;SDS011;6676;45.192;5.722;2023-06-19T10:30:22;7.47;;;6.60;;
13222;SDS011;6676;45.192;5.722;2023-06-19T10:33:14;7.00;;;6.30;;
13222;SDS011;6676;45.192;5.722;2023-06-19T10:36:13;7.37;;;6.65;;
13222;SDS011;6676;45.192;5.722;2023-06-19T10:39:06;7.22;;;6.42;;
13222;SDS011;6676;45.192;5.722;2023-06-19T10:41:58;8.98;;;6.97;;
13222;SDS011;6676;45.192;5.722;2023-06-19T10:44:52;9.23;;;7.22;;
13222;SDS011;6676;45.192;5.722;2023-06-19T10:47:49;7.22;;;6.55;;
13222;SDS011;6676;45.192;5.722;2023-06-19T10:50:43;9.03;;;6.70;;
13222;SDS011;6676;45.192;5.722;2023-06-19T10:53:34;7.25;;;5.78;;
13222;SDS011;6676;45.192;5.722;2023-06-19T10:56:26;9.70;;;6.22;;
13222;SDS011;6676;45.192;5.722;2023-06-19T10:59:23;9.47;;;7.00;;
13222;SDS011;6676;45.192;5.722;2023-06-19T11:02:18;9.18;;;6.50;;
13222;SDS011;6676;45.192;5.722;2023-06-19T11:05:16;7.80;;;6.90;;
13222;SDS011;6676;45.192;5.722;2023-06-19T11:08:10;8.08;;;6.92;;
13222;SDS011;6676;45.192;5.722;2023-06-19T11:11:02;9.53;;;6.60;;
13222;SDS011;6676;45.192;5.722;2023-06-19T11:13:54;6.72;;;6.08;;
13222;SDS011;6676;45.192;5.722;2023-06-19T11:16:46;7.62;;;6.37;;
13222;SDS011;6676;45.192;5.722;2023-06-19T11:19:40;7.28;;;6.05;;
13222;SDS011;6676;45.192;5.722;2023-06-19T11:22:36;5.78;;;5.08;;
13222;SDS011;6676;45.192;5.722;2023-06-19T11:25:35;5.47;;;4.97;;
13222;SDS011;6676;45.192;5.722;2023-06-19T11:28:28;5.92;;;5.08;;
13222;SDS011;6676;45.192;5.722;2023-06-19T11:31:24;5.55;;;5.05;;
13222;SDS011;6676;45.192;5.722;2023-06-19T11:34:16;5.50;;;5.00;;
13222;SDS011;6676;45.192;5.722;2023-06-19T11:37:12;6.00;;;5.17;;
13222;SDS011;6676;45.192;5.722;2023-06-19T11:40:05;5.12;;;4.62;;
13222;SDS011;6676;45.192;5.722;2023-06-19T11:43:06;5.75;;;4.37;;
13222;SDS011;6676;45.192;5.722;2023-06-19T11:46:02;4.97;;;4.08;;
13222;SDS011;6676;45.192;5.722;2023-06-19T11:48:54;5.60;;;4.35;;
13222;SDS011;6676;45.192;5.722;2023-06-19T11:51:51;5.08;;;4.30;;
13222;SDS011;6676;45.192;5.722;2023-06-19T11:54:42;4.67;;;4.28;;
13222;SDS011;6676;45.192;5.722;2023-06-19T11:57:33;5.75;;;4.45;;
13222;SDS011;6676;45.192;5.722;2023-06-19T12:00:25;5.92;;;4.55;;
13222;SDS011;6676;45.192;5.722;2023-06-19T12:03:16;4.67;;;4.28;;
13222;SDS011;6676;45.192;5.722;2023-06-19T12:06:08;4.67;;;4.28;;
13222;SDS011;6676;45.192;5.722;2023-06-19T12:09:01;5.53;;;4.60;;
13222;SDS011;6676;45.192;5.722;2023-06-19T12:11:54;4.60;;;4.20;;
13222;SDS011;6676;45.192;5.722;2023-06-19T12:14:45;5.03;;;4.20;;
13222;SDS011;6676;45.192;5.722;2023-06-19T12:17:37;4.40;;;4.08;;
13222;SDS011;6676;45.192;5.722;2023-06-19T12:20:29;5.05;;;4.53;;
13222;SDS011;6676;45.192;5.722;2023-06-19T12:23:21;5.33;;;4.10;;
13222;SDS011;6676;45.192;5.722;2023-06-19T12:26:12;5.62;;;4.05;;
13222;SDS011;6676;45.192;5.722;2023-06-19T12:29:03;5.72;;;4.30;;
13222;SDS011;6676;45.192;5.722;2023-06-19T12:31:59;5.85;;;4.40;;
13222;SDS011;6676;45.192;5.722;2023-06-19T12:34:51;5.05;;;4.47;;
13222;SDS011;6676;45.192;5.722;2023-06-19T12:37:42;4.42;;;4.03;;
13222;SDS011;6676;45.192;5.722;2023-06-19T12:40:34;6.25;;;4.58;;
13222;SDS011;6676;45.192;5.722;2023-06-19T12:43:26;5.50;;;4.20;;
13222;SDS011;6676;45.192;5.722;2023-06-19T12:46:07;4.90;;;4.40;;
13222;SDS011;6676;45.192;5.722;2023-06-19T12:48:59;5.08;;;4.22;;
13222;SDS011;6676;45.192;5.722;2023-06-19T12:51:50;5.37;;;4.20;;
13222;SDS011;6676;45.192;5.722;2023-06-19T12:54:43;4.80;;;4.25;;
13222;SDS011;6676;45.192;5.722;2023-06-19T12:57:34;4.90;;;4.40;;
13222;SDS011;6676;45.192;5.722;2023-06-19T13:00:26;5.67;;;4.50;;
13222;SDS011;6676;45.192;5.722;2023-06-19T13:03:17;5.33;;;4.83;;
13222;SDS011;6676;45.192;5.722;2023-06-19T13:06:09;5.05;;;4.55;;
13222;SDS011;6676;45.192;5.722;2023-06-19T13:09:00;4.97;;;4.42;;
13222;SDS011;6676;45.192;5.722;2023-06-19T13:11:54;5.83;;;4.65;;
13222;SDS011;6676;45.192;5.722;2023-06-19T13:14:46;4.37;;;4.00;;
13222;SDS011;6676;45.192;5.722;2023-06-19T13:17:38;4.85;;;4.35;;
13222;SDS011;6676;45.192;5.722;2023-06-19T13:20:29;4.45;;;4.05;;
13222;SDS011;6676;45.192;5.722;2023-06-19T13:23:21;5.85;;;4.53;;
13222;SDS011;6676;45.192;5.722;2023-06-19T13:26:12;4.70;;;4.30;;
13222;SDS011;6676;45.192;5.722;2023-06-19T13:29:04;5.22;;;4.60;;
13222;SDS011;6676;45.192;5.722;2023-06-19T13:31:45;5.08;;;4.42;;
13222;SDS011;6676;45.192;5.722;2023-06-19T13:34:36;5.05;;;4.33;;
13222;SDS011;6676;45.192;5.722;2023-06-19T13:37:27;5.12;;;4.62;;
13222;SDS011;6676;45.192;5.722;2023-06-19T13:40:19;4.83;;;4.17;;
13222;SDS011;6676;45.192;5.722;2023-06-19T13:43:11;5.03;;;4.40;;
13222;SDS011;6676;45.192;5.722;2023-06-19T13:46:03;5.10;;;4.17;;
13222;SDS011;6676;45.192;5.722;2023-06-19T13:48:54;4.28;;;3.87;;
13222;SDS011;6676;45.192;5.722;2023-06-19T13:51:47;4.45;;;4.05;;
13222;SDS011;6676;45.192;5.722;2023-06-19T13:54:39;5.75;;;4.55;;
13222;SDS011;6676;45.192;5.722;2023-06-19T13:57:30;4.22;;;3.90;;
13222;SDS011;6676;45.192;5.722;2023-06-19T14:00:22;4.78;;;4.37;;
13222;SDS011;6676;45.192;5.722;2023-06-19T14:03:14;7.28;;;4.00;;
13222;SDS011;6676;45.192;5.722;2023-06-19T14:06:06;4.25;;;3.83;;
13222;SDS011;6676;45.192;5.722;2023-06-19T14:08:57;4.33;;;3.92;;
13222;SDS011;6676;45.192;5.722;2023-06-19T14:11:48;5.12;;;4.10;;
13222;SDS011;6676;45.192;5.722;2023-06-19T14:14:40;4.20;;;3.77;;
13222;SDS011;6676;45.192;5.722;2023-06-19T14:17:32;4.17;;;3.67;;
13222;SDS011;6676;45.192;5.722;2023-06-19T14:20:24;6.35;;;4.25;;
13222;SDS011;6676;45.192;5.722;2023-06-19T14:23:15;5.42;;;4.08;;
13222;SDS011;6676;45.192;5.722;2023-06-19T14:26:07;4.97;;;3.72;;
13222;SDS011;6676;45.192;5.722;2023-06-19T14:28:58;9.48;;;3.98;;
13222;SDS011;6676;45.192;5.722;2023-06-19T14:31:51;5.10;;;3.83;;
13222;SDS011;6676;45.192;5.722;2023-06-19T14:34:42;5.00;;;3.77;;
13222;SDS011;6676;45.192;5.722;2023-06-19T14:37:35;4.30;;;4.00;;
13222;SDS011;6676;45.192;5.722;2023-06-19T14:40:27;4.92;;;4.12;;
13222;SDS011;6676;45.192;5.722;2023-06-19T14:43:18;5.97;;;3.52;;
13222;SDS011;6676;45.192;5.722;2023-06-19T14:46:11;4.70;;;4.03;;
13222;SDS011;6676;45.192;5.722;2023-06-19T14:49:03;3.77;;;3.47;;
13222;SDS011;6676;45.192;5.722;2023-06-19T14:51:55;4.62;;;3.62;;
13222;SDS011;6676;45.192;5.722;2023-06-19T14:54:47;5.12;;;3.77;;
13222;SDS011;6676;45.192;5.722;2023-06-19T14:57:39;3.98;;;3.65;;
13222;SDS011;6676;45.192;5.722;2023-06-19T15:00:31;7.60;;;3.92;;
13222;SDS011;6676;45.192;5.722;2023-06-19T15:03:22;3.92;;;3.62;;
13222;SDS011;6676;45.192;5.722;2023-06-19T15:06:14;5.90;;;3.90;;
13222;SDS011;6676;45.192;5.722;2023-06-19T15:09:06;3.92;;;3.40;;
13222;SDS011;6676;45.192;5.722;2023-06-19T15:11:57;3.83;;;3.52;;
13222;SDS011;6676;45.192;5.722;2023-06-19T15:14:49;4.22;;;3.83;;
13222;SDS011;6676;45.192;5.722;2023-06-19T15:17:40;5.95;;;3.80;;
13222;SDS011;6676;45.192;5.722;2023-06-19T15:20:32;7.37;;;3.55;;
13222;SDS011;6676;45.192;5.722;2023-06-19T15:23:25;4.17;;;3.77;;
13222;SDS011;6676;45.192;5.722;2023-06-19T15:26:17;4.60;;;3.35;;
13222;SDS011;6676;45.192;5.722;2023-06-19T15:29:09;4.20;;;3.80;;
13222;SDS011;6676;45.192;5.722;2023-06-19T15:31:53;4.60;;;4.00;;
13222;SDS011;6676;45.192;5.722;2023-06-19T15:34:45;3.92;;;3.58;;
13222;SDS011;6676;45.192;5.722;2023-06-19T15:37:36;4.45;;;3.85;;
13222;SDS011;6676;45.192;5.722;2023-06-19T15:40:28;4.00;;;3.60;;
13222;SDS011;6676;45.192;5.722;2023-06-19T15:43:20;4.37;;;3.55;;
13222;SDS011;6676;45.192;5.722;2023-06-19T15:46:13;4.25;;;3.85;;
13222;SDS011;6676;45.192;5.722;2023-06-19T15:49:05;5.65;;;3.80;;
13222;SDS011;6676;45.192;5.722;2023-06-19T15:51:58;5.45;;;3.95;;
13222;SDS011;6676;45.192;5.722;2023-06-19T15:54:50;5.80;;;4.10;;
13222;SDS011;6676;45.192;5.722;2023-06-19T15:57:41;4.00;;;3.60;;
13222;SDS011;6676;45.192;5.722;2023-06-19T16:00:32;4.20;;;3.60;;
13222;SDS011;6676;45.192;5.722;2023-06-19T16:03:24;4.30;;;3.92;;
13222;SDS011;6676;45.192;5.722;2023-06-19T16:06:17;5.12;;;3.80;;
13222;SDS011;6676;45.192;5.722;2023-06-19T16:09:08;5.00;;;3.62;;
13222;SDS011;6676;45.192;5.722;2023-06-19T16:12:00;5.05;;;3.83;;
13222;SDS011;6676;45.192;5.722;2023-06-19T16:14:52;6.22;;;3.52;;
13222;SDS011;6676;45.192;5.722;2023-06-19T16:17:43;4.85;;;3.98;;
13222;SDS011;6676;45.192;5.722;2023-06-19T16:20:35;4.30;;;3.92;;
13222;SDS011;6676;45.192;5.722;2023-06-19T16:23:26;6.35;;;4.00;;
13222;SDS011;6676;45.192;5.722;2023-06-19T16:26:21;6.55;;;3.90;;
13222;SDS011;6676;45.192;5.722;2023-06-19T16:29:13;5.58;;;4.45;;
13222;SDS011;6676;45.192;5.722;2023-06-19T16:32:05;4.28;;;3.95;;
13222;SDS011;6676;45.192;5.722;2023-06-19T16:34:58;4.28;;;3.87;;
13222;SDS011;6676;45.192;5.722;2023-06-19T16:37:50;4.60;;;4.20;;
13222;SDS011;6676;45.192;5.722;2023-06-19T16:40:43;4.75;;;4.10;;
13222;SDS011;6676;45.192;5.722;2023-06-19T16:43:34;4.67;;;4.22;;
13222;SDS011;6676;45.192;5.722;2023-06-19T16:46:26;5.03;;;3.87;;
13222;SDS011;6676;45.192;5.722;2023-06-19T16:49:18;4.55;;;4.15;;
13222;SDS011;6676;45.192;5.722;2023-06-19T16:52:11;5.12;;;3.45;;
13222;SDS011;6676;45.192;5.722;2023-06-19T16:55:03;5.45;;;4.42;;
13222;SDS011;6676;45.192;5.722;2023-06-19T16:57:57;7.65;;;4.50;;
13222;SDS011;6676;45.192;5.722;2023-06-19T17:00:50;5.37;;;3.87;;
13222;SDS011;6676;45.192;5.722;2023-06-19T17:03:42;4.22;;;3.92;;
13222;SDS011;6676;45.192;5.722;2023-06-19T17:06:34;5.08;;;4.25;;
13222;SDS011;6676;45.192;5.722;2023-06-19T17:09:27;4.25;;;3.87;;
13222;SDS011;6676;45.192;5.722;2023-06-19T17:12:19;4.65;;;3.80;;
13222;SDS011;6676;45.192;5.722;2023-06-19T17:15:10;5.30;;;3.83;;
13222;SDS011;6676;45.192;5.722;2023-06-19T17:18:02;4.55;;;4.15;;
13222;SDS011;6676;45.192;5.722;2023-06-19T17:20:55;4.72;;;4.33;;
13222;SDS011;6676;45.192;5.722;2023-06-19T17:23:46;6.20;;;4.17;;
13222;SDS011;6676;45.192;5.722;2023-06-19T17:26:38;4.78;;;4.10;;
13222;SDS011;6676;45.192;5.722;2023-06-19T17:29:30;4.72;;;4.05;;
13222;SDS011;6676;45.192;5.722;2023-06-19T17:32:21;5.17;;;4.30;;
13222;SDS011;6676;45.192;5.722;2023-06-19T17:35:12;5.08;;;4.33;;
13222;SDS011;6676;45.192;5.722;2023-06-19T17:38:04;4.62;;;3.95;;
13222;SDS011;6676;45.192;5.722;2023-06-19T17:40:56;5.50;;;4.22;;
13222;SDS011;6676;45.192;5.722;2023-06-19T17:43:48;4.70;;;4.30;;
13222;SDS011;6676;45.192;5.722;2023-06-19T17:46:39;5.35;;;4.85;;
13222;SDS011;6676;45.192;5.722;2023-06-19T17:49:31;6.72;;;4.08;;
13222;SDS011;6676;45.192;5.722;2023-06-19T17:52:23;5.75;;;4.53;;
13222;SDS011;6676;45.192;5.722;2023-06-19T17:55:14;6.30;;;4.60;;
13222;SDS011;6676;45.192;5.722;2023-06-19T17:58:05;5.42;;;4.33;;
13222;SDS011;6676;45.192;5.722;2023-06-19T18:00:57;5.87;;;4.78;;
13222;SDS011;6676;45.192;5.722;2023-06-19T18:03:49;4.65;;;4.15;;
13222;SDS011;6676;45.192;5.722;2023-06-19T18:06:40;4.30;;;3.83;;
13222;SDS011;6676;45.192;5.722;2023-06-19T18:09:32;4.87;;;4.40;;
13222;SDS011;6676;45.192;5.722;2023-06-19T18:12:23;6.90;;;4.62;;
13222;SDS011;6676;45.192;5.722;2023-06-19T18:15:15;5.20;;;4.70;;
13222;SDS011;6676;45.192;5.722;2023-06-19T18:20:54;5.20;;;4.67;;
13222;SDS011;6676;45.192;5.722;2023-06-19T18:26:25;6.35;;;4.60;;
13222;SDS011;6676;45.192;5.722;2023-06-19T18:29:16;6.50;;;4.75;;
13222;SDS011;6676;45.192;5.722;2023-06-19T18:32:08;5.72;;;4.60;;
13222;SDS011;6676;45.192;5.722;2023-06-19T18:35:00;5.28;;;4.78;;
13222;SDS011;6676;45.192;5.722;2023-06-19T18:37:45;6.00;;;4.60;;
13222;SDS011;6676;45.192;5.722;2023-06-19T18:40:37;6.70;;;4.50;;
13222;SDS011;6676;45.192;5.722;2023-06-19T18:43:29;4.97;;;4.47;;
13222;SDS011;6676;45.192;5.722;2023-06-19T18:46:23;7.05;;;4.55;;
13222;SDS011;6676;45.192;5.722;2023-06-19T18:49:14;7.72;;;4.78;;
13222;SDS011;6676;45.192;5.722;2023-06-19T18:52:06;5.55;;;4.47;;
13222;SDS011;6676;45.192;5.722;2023-06-19T18:54:58;7.12;;;4.22;;